Time;durP1;ratioP1;P1;durP2;ratioP2;P2;SDS_P1;SDS_P2;PMS_P1;PMS_P2;Temp;Humidity;BMP_temperature;BMP_pressure;BME280_temperature;BME280_humidity;BME280_pressure;Samples;Min_cycle;Max_cycle;Signal;HPM_P1;HPM_P2
2022/12/18 00:00:40;;;;;;;;;;;;;;;18.77;68.05;99466.03;2081808;28;22181;-71
2022/12/18 00:01:41;;;;;;;;;;;;;;;18.75;68.25;99466.25;2081593;28;19925;-71
2022/12/18 00:02:42;;;;;;;;;;;;;;;18.77;68.14;99468.72;2082278;28;20340;-71
2022/12/18 00:03:43;;;;;;;;;;;;;;;18.74;68.00;99467.25;2079470;28;19974;-72
2022/12/18 00:04:44;;;;;;;;;;;;;;;18.75;68.22;99476.16;2080928;28;20382;-71
2022/12/18 00:05:48;;;;;;;;;;;;;;;18.77;68.12;99478.66;2083204;28;19929;-71
2022/12/18 00:06:51;;;;;;;;;;;;;;;18.75;68.05;99471.63;2082262;28;20358;-71
2022/12/18 00:07:52;;;;;;;;;;;;;;;18.74;68.10;99480.69;2082022;28;19928;-71
2022/12/18 00:08:54;;;;;;;;;;;;;;;18.74;67.95;99480.69;2081791;28;20031;-70
2022/12/18 00:09:54;;;;;;;;;;;;;;;18.72;68.35;99487.22;2082032;28;19924;-71
2022/12/18 00:10:56;;;;;;;;;;;;;;;18.71;68.45;99485.56;2081403;28;19974;-70
2022/12/18 00:11:56;;;;;;;;;;;;;;;18.71;68.47;99485.56;2081015;28;19931;-70
2022/12/18 00:12:58;;;;;;;;;;;;;;;18.72;68.05;99492.59;2081301;28;19947;-71
2022/12/18 00:13:59;;;;;;;;;;;;;;;18.70;68.59;99481.22;2081649;28;19944;-71
2022/12/18 00:15:01;;;;;;;;;;;;;;;18.72;68.18;99487.22;2082941;28;19978;-71
2022/12/18 00:16:02;;;;;;;;;;;;;;;18.71;68.22;99496.31;2068862;28;19940;-70
2022/12/18 00:17:03;;;;;;;;;;;;;;;18.71;68.06;99496.31;2081547;28;19921;-72
2022/12/18 00:18:04;;;;;;;;;;;;;;;18.71;68.38;99491.75;2081713;28;19925;-71
2022/12/18 00:19:07;;;;;;;;;;;;;;;18.70;68.14;99497.34;2081429;28;19932;-71
2022/12/18 00:20:09;;;;;;;;;;;;;;;18.70;68.05;99494.66;2080666;28;20381;-71
2022/12/18 00:21:10;;;;;;;;;;;;;;;18.70;68.12;99500.84;2081927;28;20007;-71
2022/12/18 00:22:13;;;;;;;;;;;;;;;18.73;67.94;99488.91;2075349;28;19960;-71
2022/12/18 00:23:14;;;;;;;;;;;;;;;18.69;68.25;99499.19;2080605;28;20356;-71
2022/12/18 00:24:15;;;;;;;;;;;;;;;18.69;68.30;99503.72;2080028;28;19921;-70
2022/12/18 00:25:16;;;;;;;;;;;;;;;18.67;68.67;99505.78;2082771;28;19928;-70
2022/12/18 00:26:19;;;;;;;;;;;;;;;18.67;68.22;99514.66;2081699;28;20294;-70
2022/12/18 00:27:19;;;;;;;;;;;;;;;18.68;68.42;99518.19;2081814;28;19926;-72
2022/12/18 00:28:21;;;;;;;;;;;;;;;18.64;68.60;99506.97;2077524;28;20378;-69
2022/12/18 00:29:21;;;;;;;;;;;;;;;18.66;68.00;99512.97;2081297;28;19920;-71
2022/12/18 00:30:23;;;;;;;;;;;;;;;18.67;68.45;99514.66;2081332;28;19929;-70
2022/12/18 00:31:24;;;;;;;;;;;;;;;18.68;68.29;99518.19;2081209;28;19920;-70
2022/12/18 00:32:25;;;;;;;;;;;;;;;18.65;68.46;99518.53;2080921;28;20746;-71
2022/12/18 00:33:26;;;;;;;;;;;;;;;18.65;68.35;99518.53;2081368;28;19970;-70
2022/12/18 00:34:27;;;;;;;;;;;;;;;18.67;68.09;99521.91;2076001;28;20336;-70
2022/12/18 00:35:28;;;;;;;;;;;;;;;18.64;68.49;99523.09;2081301;28;19932;-70
2022/12/18 00:36:31;;;;;;;;;;;;;;;18.64;68.25;99523.09;2081266;28;19967;-69
2022/12/18 00:37:34;;;;;;;;;;;;;;;18.64;68.42;99528.47;2082408;28;19924;-71
2022/12/18 00:38:36;;;;;;;;;;;;;;;18.61;68.67;99522.59;2081301;28;19950;-70
2022/12/18 00:39:36;;;;;;;;;;;;;;;18.61;68.43;99527.97;2081445;28;19989;-70
2022/12/18 00:40:38;;;;;;;;;;;;;;;18.62;68.37;99521.59;2077503;28;19974;-70
2022/12/18 00:42:58;;;;;;;;;;;;;;;18.62;68.61;99518.91;2081328;28;19933;-70
2022/12/18 00:43:58;;;;;;;;;;;;;;;18.60;68.70;99529.81;2084162;28;19937;-71
2022/12/18 00:45:00;;;;;;;;;;;;;;;18.58;68.71;99528.34;2081671;28;20118;-70
2022/12/18 00:46:00;;;;;;;;;;;;;;;18.60;68.64;99537.06;2079495;28;19932;-71
2022/12/18 00:47:02;;;;;;;;;;;;;;;18.60;68.45;99531.69;2074528;28;20261;-70
2022/12/18 00:48:03;;;;;;;;;;;;;;;18.59;68.09;99532.72;2080192;28;19932;-71
2022/12/18 00:49:04;;;;;;;;;;;;;;;18.57;68.85;99545.47;2079745;28;19921;-71
2022/12/18 00:50:06;;;;;;;;;;;;;;;18.54;68.83;99539.44;2080866;28;20367;-69
2022/12/18 00:51:08;;;;;;;;;;;;;;;18.55;68.56;99540.28;2081118;28;19978;-71
2022/12/18 00:52:09;;;;;;;;;;;;;;;18.51;68.68;99544.34;2075640;28;20035;-71
2022/12/18 00:53:12;;;;;;;;;;;;;;;18.50;68.88;99548.91;2079205;28;19932;-70
2022/12/18 00:54:13;;;;;;;;;;;;;;;18.49;68.82;99541.84;2081275;28;19929;-73
2022/12/18 00:55:15;;;;;;;;;;;;;;;18.50;69.13;99548.06;2082455;28;19928;-71
2022/12/18 00:56:16;;;;;;;;;;;;;;;18.47;68.80;99549.25;2081195;28;20385;-70
2022/12/18 00:57:17;;;;;;;;;;;;;;;18.46;68.79;99546.75;2080340;28;20019;-72
2022/12/18 00:58:18;;;;;;;;;;;;;;;18.46;68.88;99549.44;2079680;28;19924;-70
2022/12/18 00:59:19;;;;;;;;;;;;;;;18.44;69.23;99548.75;2080523;28;19920;-72
2022/12/18 01:00:20;;;;;;;;;;;;;;;18.44;69.04;99548.75;2081022;28;19928;-71
2022/12/18 01:01:21;;;;;;;;;;;;;;;18.45;68.87;99550.47;2083130;28;19947;-72
2022/12/18 01:02:22;;;;;;;;;;;;;;;18.43;69.38;99549.78;2080822;28;19939;-71
2022/12/18 01:03:23;;;;;;;;;;;;;;;18.41;68.92;99558.03;2082698;28;19990;-72
2022/12/18 01:04:24;;;;;;;;;;;;;;;18.42;69.16;99554.34;2081931;28;20062;-71
2022/12/18 01:05:25;;;;;;;;;;;;;;;18.42;69.34;99554.34;2079903;28;19921;-71
2022/12/18 01:06:26;;;;;;;;;;;;;;;18.42;69.15;99566.94;2082160;28;19937;-70
2022/12/18 01:07:27;;;;;;;;;;;;;;;18.42;69.09;99561.56;2081758;28;19924;-72
2022/12/18 01:08:29;;;;;;;;;;;;;;;18.42;69.18;99566.94;2081046;28;19924;-72
2022/12/18 01:09:31;;;;;;;;;;;;;;;18.41;68.76;99570.63;2082386;28;20017;-71
2022/12/18 01:10:32;;;;;;;;;;;;;;;18.41;68.87;99570.63;2082111;28;19929;-70
2022/12/18 01:11:33;;;;;;;;;;;;;;;18.42;68.87;99573.13;2079519;28;20040;-71
2022/12/18 01:12:34;;;;;;;;;;;;;;;18.40;69.04;99566.28;2080818;28;19932;-70
2022/12/18 01:13:35;;;;;;;;;;;;;;;18.41;68.85;99576.00;2081656;28;19928;-70
2022/12/18 01:14:37;;;;;;;;;;;;;;;18.41;68.71;99566.06;2081147;28;20467;-70
2022/12/18 01:15:39;;;;;;;;;;;;;;;18.39;68.83;99568.13;2079393;28;19992;-69
2022/12/18 01:16:40;;;;;;;;;;;;;;;18.41;68.77;99570.63;2081602;28;19932;-71
2022/12/18 01:17:41;;;;;;;;;;;;;;;18.40;68.87;99574.34;2079767;28;19993;-70
2022/12/18 01:18:42;;;;;;;;;;;;;;;18.39;69.14;99576.19;2078355;28;19924;-71
2022/12/18 01:19:44;;;;;;;;;;;;;;;18.38;69.26;99577.19;2078551;28;20312;-72
2022/12/18 01:20:44;;;;;;;;;;;;;;;18.36;69.07;99579.22;2078646;28;20634;-71
2022/12/18 01:21:46;;;;;;;;;;;;;;;18.37;69.06;99582.75;2079932;28;20020;-70
2022/12/18 01:22:46;;;;;;;;;;;;;;;18.35;69.23;99577.53;2079129;28;20066;-71
2022/12/18 01:23:51;;;;;;;;;;;;;;;18.34;69.51;99578.56;2081003;28;20406;-70
2022/12/18 01:24:52;;;;;;;;;;;;;;;18.35;69.45;99582.09;2081636;28;19928;-71
2022/12/18 01:25:53;;;;;;;;;;;;;;;18.35;69.27;99588.28;2083341;28;19920;-71
2022/12/18 01:26:54;;;;;;;;;;;;;;;18.35;69.38;99588.28;2080677;28;19974;-71
2022/12/18 01:27:55;;;;;;;;;;;;;;;18.35;69.33;99588.28;2082099;28;19924;-71
2022/12/18 01:28:56;;;;;;;;;;;;;;;18.34;68.54;99594.69;2081225;28;19924;-70
2022/12/18 01:29:58;;;;;;;;;;;;;;;18.34;69.18;99592.00;2080775;28;19929;-70
2022/12/18 01:31:08;;;;;;;;;;;;;;;18.35;69.65;99587.47;2082542;28;20263;-71
2022/12/18 01:32:10;;;;;;;;;;;;;;;18.33;69.46;99589.47;2083621;28;19925;-71
2022/12/18 01:33:10;;;;;;;;;;;;;;;18.32;69.17;99585.97;2081520;28;19925;-71
2022/12/18 01:34:12;;;;;;;;;;;;;;;18.33;69.27;99590.34;2082861;28;19924;-72
2022/12/18 01:35:13;;;;;;;;;;;;;;;18.31;69.27;99590.50;2080598;28;19920;-71
2022/12/18 01:36:19;;;;;;;;;;;;;;;18.31;68.96;99589.66;2080446;28;19928;-72
2022/12/18 01:37:19;;;;;;;;;;;;;;;18.29;69.09;99595.22;2083287;28;20304;-71
2022/12/18 01:38:21;;;;;;;;;;;;;;;18.28;69.70;99587.34;2082221;28;19924;-70
2022/12/18 01:39:23;;;;;;;;;;;;;;;18.27;69.47;99591.03;2081246;28;19928;-71
2022/12/18 01:40:24;;;;;;;;;;;;;;;18.24;68.86;99586.00;2081773;28;20270;-71
2022/12/18 01:42:01;;;;;;;;;;;;;;;18.26;69.27;99590.19;2072172;28;20389;-71
2022/12/18 01:42:50;;;;;;;;;;;;;;;18.24;69.12;99589.53;2079428;28;19931;-70
2022/12/18 01:43:52;;;;;;;;;;;;;;;18.24;69.88;99591.38;2080843;28;19924;-71
2022/12/18 01:44:58;;;;;;;;;;;;;;;18.28;69.47;99592.72;2079523;28;21074;-70
2022/12/18 01:45:59;;;;;;;;;;;;;;;18.24;69.73;99592.22;2081636;28;20305;-71
2022/12/18 01:47:00;;;;;;;;;;;;;;;18.25;69.84;99582.34;2079222;28;19924;-71
2022/12/18 01:48:02;;;;;;;;;;;;;;;18.23;69.52;99589.72;2080389;28;19921;-70
2022/12/18 01:49:04;;;;;;;;;;;;;;;18.21;69.87;99591.75;2082237;28;19959;-71
2022/12/18 01:50:07;;;;;;;;;;;;;;;18.21;69.52;99589.88;2082850;28;19925;-71
2022/12/18 01:51:09;;;;;;;;;;;;;;;18.21;69.49;99597.13;2084259;28;19947;-71
2022/12/18 01:52:10;;;;;;;;;;;;;;;18.20;69.70;99596.28;2083539;28;19981;-70
2022/12/18 01:53:13;;;;;;;;;;;;;;;18.21;69.68;99597.13;2085321;28;20007;-72
2022/12/18 01:54:14;;;;;;;;;;;;;;;18.22;69.43;99590.72;2083695;28;19921;-69
2022/12/18 01:55:17;;;;;;;;;;;;;;;18.20;69.35;99590.91;2085032;28;19931;-70
2022/12/18 01:56:19;;;;;;;;;;;;;;;18.20;69.54;99598.13;2083404;28;20011;-70
2022/12/18 01:57:21;;;;;;;;;;;;;;;18.17;69.83;99593.13;2083402;28;19996;-71
2022/12/18 01:58:24;;;;;;;;;;;;;;;18.18;69.37;99594.78;2083698;28;19993;-70
2022/12/18 01:59:25;;;;;;;;;;;;;;;18.15;69.75;99590.59;2083069;28;19925;-71
2022/12/18 02:00:26;;;;;;;;;;;;;;;18.15;69.60;99595.16;2082705;28;19932;-71
2022/12/18 02:01:30;;;;;;;;;;;;;;;18.12;69.65;99587.44;2082958;28;19927;-70
2022/12/18 02:02:30;;;;;;;;;;;;;;;18.14;69.53;99596.16;2082894;28;19997;-69
2022/12/18 02:03:32;;;;;;;;;;;;;;;18.13;69.53;99594.47;2083062;28;20019;-71
2022/12/18 02:04:32;;;;;;;;;;;;;;;18.12;69.80;99590.97;2082923;28;19928;-71
2022/12/18 02:05:40;;;;;;;;;;;;;;;18.14;69.24;99597.00;2083559;28;20002;-71
2022/12/18 02:06:42;;;;;;;;;;;;;;;18.14;69.51;99598.84;2081782;28;20012;-71
2022/12/18 02:07:47;;;;;;;;;;;;;;;18.11;69.93;99589.31;2082658;28;19925;-70
2022/12/18 02:08:53;;;;;;;;;;;;;;;18.09;70.02;99602.88;2082840;28;19928;-70
2022/12/18 02:09:59;;;;;;;;;;;;;;;18.08;70.04;99606.59;2082805;28;19925;-71
2022/12/18 02:11:04;;;;;;;;;;;;;;;18.10;69.76;99606.41;2083090;28;19928;-69
2022/12/18 02:12:11;;;;;;;;;;;;;;;18.08;69.63;99603.91;2081076;28;19921;-70
2022/12/18 02:13:14;;;;;;;;;;;;;;;18.09;69.52;99605.56;2080682;28;20035;-70
2022/12/18 02:14:19;;;;;;;;;;;;;;;18.08;69.60;99603.91;2080621;28;20014;-70
2022/12/18 02:15:23;;;;;;;;;;;;;;;18.08;69.84;99614.66;2084181;28;20392;-70
2022/12/18 02:16:27;;;;;;;;;;;;;;;18.09;69.52;99607.44;2082598;28;20380;-69
2022/12/18 02:17:31;;;;;;;;;;;;;;;18.08;69.83;99608.44;2083540;28;19921;-71
2022/12/18 02:18:34;;;;;;;;;;;;;;;18.07;70.07;99612.13;2081675;28;19929;-71
2022/12/18 02:19:42;;;;;;;;;;;;;;;18.05;69.82;99606.94;2082057;28;20253;-70
2022/12/18 02:20:46;;;;;;;;;;;;;;;18.07;69.67;99607.59;2084375;28;21979;-72
2022/12/18 02:21:50;;;;;;;;;;;;;;;18.06;69.85;99605.94;2083228;28;19948;-70
2022/12/18 02:23:00;;;;;;;;;;;;;;;18.03;69.88;99605.44;2082698;28;19933;-72
2022/12/18 02:24:11;;;;;;;;;;;;;;;18.02;69.85;99609.97;2084219;28;20007;-71
2022/12/18 02:25:16;;;;;;;;;;;;;;;18.03;69.46;99608.97;2082351;28;20461;-71
2022/12/18 02:26:22;;;;;;;;;;;;;;;18.03;69.55;99608.97;2082682;28;19956;-71
2022/12/18 02:27:23;;;;;;;;;;;;;;;18.03;69.96;99606.28;2083950;28;19925;-71
2022/12/18 02:28:27;;;;;;;;;;;;;;;18.00;69.48;99606.63;2084287;28;19958;-71
2022/12/18 02:29:30;;;;;;;;;;;;;;;17.99;69.91;99610.31;2083102;28;19965;-70
2022/12/18 02:30:34;;;;;;;;;;;;;;;18.00;69.54;99608.50;2083473;28;19928;-70
2022/12/18 02:31:36;;;;;;;;;;;;;;;17.98;69.78;99614.03;2082956;28;19924;-70
2022/12/18 02:32:40;;;;;;;;;;;;;;;17.97;69.87;99611.50;2083133;28;19925;-71
2022/12/18 02:33:42;;;;;;;;;;;;;;;17.97;69.90;99617.72;2082913;28;19936;-71
2022/12/18 02:34:44;;;;;;;;;;;;;;;17.98;69.77;99607.81;2081922;28;20393;-71
2022/12/18 02:35:45;;;;;;;;;;;;;;;18.01;69.63;99616.34;2084023;28;20045;-70
2022/12/18 02:36:49;;;;;;;;;;;;;;;17.99;69.74;99617.53;2081158;28;20039;-71
2022/12/18 02:37:49;;;;;;;;;;;;;;;17.99;69.25;99615.69;2083486;28;19967;-72
2022/12/18 02:38:52;;;;;;;;;;;;;;;17.99;69.98;99618.38;2082088;28;19932;-71
2022/12/18 02:39:55;;;;;;;;;;;;;;;17.99;69.56;99620.22;2083293;28;20377;-71
2022/12/18 02:40:57;;;;;;;;;;;;;;;17.97;69.70;99616.88;2082634;28;21488;-71
2022/12/18 02:42:02;;;;;;;;;;;;;;;17.99;69.80;99615.69;2080890;28;19920;-72
2022/12/18 02:43:04;;;;;;;;;;;;;;;17.95;69.72;99617.06;2080662;28;19925;-72
2022/12/18 02:44:07;;;;;;;;;;;;;;;17.95;69.70;99624.28;2082319;28;19970;-72
2022/12/18 02:45:09;;;;;;;;;;;;;;;17.97;69.50;99628.47;2082471;28;20386;-71
2022/12/18 02:46:23;;;;;;;;;;;;;;;17.97;69.42;99625.78;2083078;28;20298;-71
2022/12/18 02:47:26;;;;;;;;;;;;;;;17.97;69.32;99627.59;2082304;28;19978;-72
2022/12/18 02:48:29;;;;;;;;;;;;;;;17.97;69.46;99625.78;2082864;28;19925;-71
2022/12/18 02:49:36;;;;;;;;;;;;;;;17.96;69.58;99628.63;2080843;28;19944;-72
2022/12/18 02:50:41;;;;;;;;;;;;;;;17.94;69.39;99628.81;2084372;28;20022;-70
2022/12/18 02:51:48;;;;;;;;;;;;;;;17.93;69.43;99629.81;2081532;28;19987;-71
2022/12/18 02:52:54;;;;;;;;;;;;;;;17.91;69.26;99634.50;2083728;28;19925;-70
2022/12/18 02:53:59;;;;;;;;;;;;;;;17.90;69.48;99632.84;2083682;28;19967;-71
2022/12/18 02:55:05;;;;;;;;;;;;;;;17.92;69.81;99643.44;2084128;28;19970;-70
2022/12/18 02:56:11;;;;;;;;;;;;;;;17.92;69.78;99648.78;2083101;28;19921;-71
2022/12/18 02:57:18;;;;;;;;;;;;;;;17.88;69.84;99647.44;2082839;28;19921;-70
2022/12/18 02:58:21;;;;;;;;;;;;;;;17.89;69.59;99649.97;2081908;28;19932;-69
2022/12/18 02:59:28;;;;;;;;;;;;;;;17.88;69.90;99650.13;2083455;28;19924;-69
2022/12/18 03:00:34;;;;;;;;;;;;;;;17.90;69.49;99650.81;2085622;28;19944;-70
2022/12/18 03:01:39;;;;;;;;;;;;;;;17.90;69.52;99653.50;2080398;28;19928;-71
2022/12/18 03:02:42;;;;;;;;;;;;;;;17.88;69.60;99650.13;2082849;28;19982;-70
2022/12/18 03:03:46;;;;;;;;;;;;;;;17.89;69.64;99662.56;2083244;28;19932;-69
2022/12/18 03:04:50;;;;;;;;;;;;;;;17.86;69.72;99653.84;2082705;28;20071;-70
2022/12/18 03:05:53;;;;;;;;;;;;;;;17.85;69.30;99660.19;2083310;28;19929;-71
2022/12/18 03:06:56;;;;;;;;;;;;;;;17.87;69.64;99654.66;2081905;28;19932;-71
2022/12/18 03:08:01;;;;;;;;;;;;;;;17.85;69.49;99654.84;2077208;28;20159;-71
2022/12/18 03:09:07;;;;;;;;;;;;;;;17.86;69.31;99656.53;2082047;28;19931;-70
2022/12/18 03:10:09;;;;;;;;;;;;;;;17.83;69.67;99664.94;2080305;28;20856;-71
2022/12/18 03:11:12;;;;;;;;;;;;;;;17.81;69.83;99666.94;2081375;28;19963;-71
2022/12/18 03:12:24;;;;;;;;;;;;;;;17.83;69.36;99667.59;2079242;28;19921;-70
2022/12/18 03:13:30;;;;;;;;;;;;;;;17.84;69.88;99668.44;2080331;28;20398;-70
2022/12/18 03:14:32;;;;;;;;;;;;;;;17.83;69.48;99681.03;2078329;28;19937;-70
2022/12/18 03:15:35;;;;;;;;;;;;;;;17.85;69.50;99670.09;2080940;28;19954;-73
2022/12/18 03:16:36;;;;;;;;;;;;;;;17.82;69.80;99675.81;2075600;28;19921;-71
2022/12/18 03:17:41;;;;;;;;;;;;;;;17.81;70.03;99683.03;2079901;28;20007;-70
2022/12/18 03:18:45;;;;;;;;;;;;;;;17.82;69.83;99673.97;2081433;28;19974;-70
2022/12/18 03:19:48;;;;;;;;;;;;;;;17.81;69.44;99680.34;2080842;28;19920;-71
2022/12/18 03:20:51;;;;;;;;;;;;;;;17.79;69.70;99681.53;2081909;28;19921;-70
2022/12/18 03:21:54;;;;;;;;;;;;;;;17.80;69.42;99684.06;2078568;28;19921;-71
2022/12/18 03:22:59;;;;;;;;;;;;;;;17.79;69.66;99684.22;2078611;28;20332;-71
2022/12/18 03:24:02;;;;;;;;;;;;;;;17.79;69.75;99685.06;2079810;28;20356;-70
2022/12/18 03:25:05;;;;;;;;;;;;;;;17.78;69.79;99683.38;2078222;28;19947;-70
2022/12/18 03:26:10;;;;;;;;;;;;;;;17.78;69.95;99686.06;2079309;28;19925;-70
2022/12/18 03:27:13;;;;;;;;;;;;;;;17.78;70.08;99685.22;2080255;28;19975;-70
2022/12/18 03:28:16;;;;;;;;;;;;;;;17.75;70.10;99686.38;2080858;28;19947;-71
2022/12/18 03:29:21;;;;;;;;;;;;;;;17.76;69.97;99688.06;2079398;28;19920;-69
2022/12/18 03:30:23;;;;;;;;;;;;;;;17.75;70.04;99689.06;2078195;28;19978;-69
2022/12/18 03:31:24;;;;;;;;;;;;;;;17.76;69.76;99690.72;2080483;28;19985;-70
2022/12/18 03:32:28;;;;;;;;;;;;;;;17.76;69.83;99689.91;2078645;28;20359;-69
2022/12/18 03:33:31;;;;;;;;;;;;;;;17.78;70.18;99698.63;2080074;28;20023;-69
2022/12/18 03:34:34;;;;;;;;;;;;;;;17.75;69.88;99696.28;2080056;28;19929;-71
2022/12/18 03:35:37;;;;;;;;;;;;;;;17.76;69.79;99696.09;2077909;28;19921;-71
2022/12/18 03:36:39;;;;;;;;;;;;;;;17.76;70.09;99697.94;2070089;28;19931;-72
2022/12/18 03:37:40;;;;;;;;;;;;;;;17.76;69.66;99700.63;2081622;28;19986;-68
2022/12/18 03:38:41;;;;;;;;;;;;;;;17.73;69.91;99695.63;2078078;28;19990;-70
2022/12/18 03:39:42;;;;;;;;;;;;;;;17.71;70.06;99695.78;2080638;28;19932;-70
2022/12/18 03:40:46;;;;;;;;;;;;;;;17.69;70.45;99703.19;2077628;28;19931;-70
2022/12/18 03:41:51;;;;;;;;;;;;;;;17.68;69.66;99697.97;2079534;28;19925;-70
2022/12/18 03:42:56;;;;;;;;;;;;;;;17.69;70.01;99695.13;2077711;28;19932;-70
2022/12/18 03:44:03;;;;;;;;;;;;;;;17.70;69.86;99701.31;2078175;28;19932;-70
2022/12/18 03:45:10;;;;;;;;;;;;;;;17.71;69.42;99700.31;2076678;28;19925;-70
2022/12/18 03:46:15;;;;;;;;;;;;;;;17.70;69.88;99699.47;2080258;28;19921;-69
2022/12/18 03:47:20;;;;;;;;;;;;;;;17.72;69.59;99702.84;2079575;28;19964;-70
2022/12/18 03:48:25;;;;;;;;;;;;;;;17.69;69.72;99705.00;2078161;28;20382;-70
2022/12/18 03:49:33;;;;;;;;;;;;;;;17.71;69.54;99709.19;2079530;28;19956;-70
2022/12/18 03:50:37;;;;;;;;;;;;;;;17.70;69.14;99701.31;2076926;28;20136;-70
2022/12/18 03:51:43;;;;;;;;;;;;;;;17.70;69.63;99707.53;2080829;28;19929;-70
2022/12/18 03:52:49;;;;;;;;;;;;;;;17.67;69.63;99707.88;2079376;28;19925;-70
2022/12/18 03:53:54;;;;;;;;;;;;;;;17.68;69.44;99709.53;2079471;28;19928;-71
2022/12/18 03:54:56;;;;;;;;;;;;;;;17.67;69.51;99712.41;2080067;28;19990;-70
2022/12/18 03:55:59;;;;;;;;;;;;;;;17.65;69.62;99715.25;2079426;28;19920;-69
2022/12/18 03:57:03;;;;;;;;;;;;;;;17.65;69.54;99710.72;2075958;28;20369;-69
2022/12/18 03:58:07;;;;;;;;;;;;;;;17.64;69.71;99706.38;2079982;28;19943;-70
2022/12/18 03:59:08;;;;;;;;;;;;;;;17.65;69.60;99707.19;2077571;28;20116;-71
2022/12/18 04:00:12;;;;;;;;;;;;;;;17.63;69.65;99709.22;2078170;28;19932;-70
2022/12/18 04:01:15;;;;;;;;;;;;;;;17.61;69.58;99706.72;2077257;28;20000;-71
2022/12/18 04:02:18;;;;;;;;;;;;;;;17.62;69.80;99711.06;2079915;28;19921;-72
2022/12/18 04:03:19;;;;;;;;;;;;;;;17.64;69.26;99702.84;2078044;28;19924;-70
2022/12/18 04:04:21;;;;;;;;;;;;;;;17.62;69.72;99708.38;2081139;28;19924;-69
2022/12/18 04:05:24;;;;;;;;;;;;;;;17.62;69.75;99716.41;2082665;28;20389;-70
2022/12/18 04:06:26;;;;;;;;;;;;;;;17.62;69.75;99718.28;2076822;28;19939;-71
2022/12/18 04:07:27;;;;;;;;;;;;;;;17.61;69.46;99716.63;2081119;28;19985;-70
2022/12/18 04:08:29;;;;;;;;;;;;;;;17.58;69.92;99711.59;2075411;28;19924;-71
2022/12/18 04:09:32;;;;;;;;;;;;;;;17.58;69.61;99712.44;2078421;28;19978;-70
2022/12/18 04:10:32;;;;;;;;;;;;;;;17.58;69.60;99716.97;2078038;28;19924;-71
2022/12/18 04:11:34;;;;;;;;;;;;;;;17.57;69.58;99716.09;2078069;28;19924;-69
2022/12/18 04:12:37;;;;;;;;;;;;;;;17.58;69.76;99714.28;2075250;28;19977;-70
2022/12/18 04:13:38;;;;;;;;;;;;;;;17.58;69.65;99719.63;2079072;28;20012;-71
2022/12/18 04:14:39;;;;;;;;;;;;;;;17.57;70.11;99721.47;2078598;28;19990;-70
2022/12/18 04:15:42;;;;;;;;;;;;;;;17.55;69.63;99720.81;2078324;28;19921;-70
2022/12/18 04:16:43;;;;;;;;;;;;;;;17.55;69.55;99718.13;2077556;28;19974;-71
2022/12/18 04:17:48;;;;;;;;;;;;;;;17.55;69.81;99726.19;2080393;28;20321;-70
2022/12/18 04:18:48;;;;;;;;;;;;;;;17.54;69.42;99724.47;2077792;28;19925;-71
2022/12/18 04:19:50;;;;;;;;;;;;;;;17.55;69.65;99720.81;2078090;28;20478;-70
2022/12/18 04:20:51;;;;;;;;;;;;;;;17.54;69.31;99721.81;2079463;28;20002;-71
2022/12/18 04:21:52;;;;;;;;;;;;;;;17.54;69.72;99724.47;2078273;28;19971;-71
2022/12/18 04:22:53;;;;;;;;;;;;;;;17.51;69.67;99718.63;2082156;28;19936;-71
2022/12/18 04:23:54;;;;;;;;;;;;;;;17.53;69.85;99722.00;2081349;28;19924;-70
2022/12/18 04:24:55;;;;;;;;;;;;;;;17.52;69.67;99721.13;2074647;28;20419;-70
2022/12/18 04:25:56;;;;;;;;;;;;;;;17.52;69.32;99720.28;2080515;28;19978;-71
2022/12/18 04:26:57;;;;;;;;;;;;;;;17.51;69.78;99726.69;2076946;28;20919;-70
2022/12/18 04:27:59;;;;;;;;;;;;;;;17.51;69.65;99724.00;2077736;28;19931;-71
2022/12/18 04:28:59;;;;;;;;;;;;;;;17.50;69.64;99725.00;2077720;28;19921;-70
2022/12/18 04:30:01;;;;;;;;;;;;;;;17.50;69.51;99728.53;2080047;28;20333;-71
2022/12/18 04:31:03;;;;;;;;;;;;;;;17.51;69.52;99726.69;2078159;28;19924;-69
2022/12/18 04:32:05;;;;;;;;;;;;;;;17.49;69.62;99726.00;2080560;28;19964;-70
2022/12/18 04:33:08;;;;;;;;;;;;;;;17.47;69.82;99734.22;2078901;28;19996;-69
2022/12/18 04:34:09;;;;;;;;;;;;;;;17.48;69.60;99730.53;2078815;28;19925;-71
2022/12/18 04:35:11;;;;;;;;;;;;;;;17.46;69.51;99737.06;2080587;28;20016;-72
2022/12/18 04:36:13;;;;;;;;;;;;;;;17.50;69.60;99738.44;2079573;28;19937;-71
2022/12/18 04:37:13;;;;;;;;;;;;;;;17.49;69.50;99731.38;2077323;28;19973;-70
2022/12/18 04:38:15;;;;;;;;;;;;;;;17.47;69.72;99733.38;2079901;28;20519;-71
2022/12/18 04:39:15;;;;;;;;;;;;;;;17.47;69.66;99733.38;2077871;28;19924;-70
2022/12/18 04:40:17;;;;;;;;;;;;;;;17.47;69.70;99730.69;2078017;28;20397;-70
2022/12/18 04:41:18;;;;;;;;;;;;;;;17.46;69.64;99732.53;2079011;28;19947;-69
2022/12/18 04:42:19;;;;;;;;;;;;;;;17.45;69.64;99725.50;2079247;28;19952;-71
2022/12/18 04:43:20;;;;;;;;;;;;;;;17.45;69.77;99720.16;2076800;28;20463;-70
2022/12/18 04:44:21;;;;;;;;;;;;;;;17.49;69.52;99728.69;2077029;28;19933;-70
2022/12/18 04:45:22;;;;;;;;;;;;;;;17.45;69.47;99725.50;2078390;28;19963;-71
2022/12/18 04:46:25;;;;;;;;;;;;;;;17.42;69.74;99733.91;2078700;28;20302;-69
2022/12/18 04:47:25;;;;;;;;;;;;;;;17.44;69.33;99729.22;2077905;28;20241;-69
2022/12/18 04:48:27;;;;;;;;;;;;;;;17.43;69.62;99723.00;2077635;28;19924;-69
2022/12/18 04:49:27;;;;;;;;;;;;;;;17.45;69.40;99728.19;2078355;28;19928;-71
2022/12/18 04:50:30;;;;;;;;;;;;;;;17.47;69.76;99728.88;2079696;28;19935;-69
2022/12/18 04:51:30;;;;;;;;;;;;;;;17.51;69.76;99734.72;2080761;28;20394;-69
2022/12/18 04:52:32;;;;;;;;;;;;;;;17.55;70.04;99730.69;2079990;28;20020;-70
2022/12/18 04:53:32;;;;;;;;;;;;;;;17.54;70.06;99732.53;2077885;28;20220;-71
2022/12/18 04:54:34;;;;;;;;;;;;;;;17.59;70.14;99732.88;2081613;28;19970;-68
2022/12/18 04:55:34;;;;;;;;;;;;;;;17.70;69.97;99738.88;2081678;28;19971;-69
2022/12/18 04:56:36;;;;;;;;;;;;;;;17.75;69.77;99737.38;2079854;28;19947;-71
2022/12/18 04:57:36;;;;;;;;;;;;;;;17.84;69.62;99741.72;2079070;28;20506;-69
2022/12/18 04:58:39;;;;;;;;;;;;;;;17.88;69.73;99747.59;2076307;28;19955;-68
2022/12/18 04:59:39;;;;;;;;;;;;;;;17.95;69.72;99747.75;2079840;28;19981;-70
2022/12/18 05:00:41;;;;;;;;;;;;;;;17.99;69.87;99743.69;2078172;28;19924;-70
2022/12/18 05:01:43;;;;;;;;;;;;;;;18.06;69.44;99745.53;2073450;28;20341;-70
2022/12/18 05:02:44;;;;;;;;;;;;;;;18.09;69.47;99745.19;2074447;28;20377;-71
2022/12/18 05:03:45;;;;;;;;;;;;;;;18.16;69.55;99749.84;2078188;28;19929;-69
2022/12/18 05:04:46;;;;;;;;;;;;;;;18.17;69.48;99738.13;2075026;28;19921;-69
2022/12/18 05:05:49;;;;;;;;;;;;;;;18.21;69.15;99742.13;2080481;28;20341;-70
2022/12/18 05:06:50;;;;;;;;;;;;;;;18.23;69.07;99734.72;2080190;28;20507;-71
2022/12/18 05:07:51;;;;;;;;;;;;;;;18.26;69.36;99737.06;2077445;28;19993;-71
2022/12/18 05:08:52;;;;;;;;;;;;;;;18.28;69.08;99748.47;2075874;28;20712;-70
2022/12/18 05:09:53;;;;;;;;;;;;;;;18.29;69.42;99739.41;2078800;28;19928;-70
2022/12/18 05:10:59;;;;;;;;;;;;;;;18.31;69.58;99745.44;2077268;28;20443;-72
2022/12/18 05:12:00;;;;;;;;;;;;;;;18.34;69.15;99742.41;2077674;28;19940;-71
2022/12/18 05:13:01;;;;;;;;;;;;;;;18.42;69.34;99747.75;2077715;28;20055;-72
2022/12/18 05:14:02;;;;;;;;;;;;;;;18.43;69.13;99743.19;2074008;28;19956;-70
2022/12/18 05:15:04;;;;;;;;;;;;;;;18.42;69.10;99750.44;2077052;28;19924;-70
2022/12/18 05:16:05;;;;;;;;;;;;;;;18.44;68.80;99752.91;2075858;28;20805;-70
2022/12/18 05:17:08;;;;;;;;;;;;;;;18.47;68.69;99753.44;2075234;28;19986;-71
2022/12/18 05:18:09;;;;;;;;;;;;;;;18.48;68.56;99760.47;2075322;28;19936;-71
2022/12/18 05:19:10;;;;;;;;;;;;;;;18.50;68.99;99763.81;2083371;28;19932;-71
2022/12/18 05:20:11;;;;;;;;;;;;;;;18.53;68.78;99759.94;2082952;28;19921;-70
2022/12/18 05:21:13;;;;;;;;;;;;;;;18.56;68.77;99759.59;2080309;28;20507;-70
2022/12/18 05:22:13;;;;;;;;;;;;;;;18.57;68.58;99769.31;2080585;28;19932;-70
2022/12/18 05:23:15;;;;;;;;;;;;;;;18.59;69.08;99771.84;2082805;28;19929;-70
2022/12/18 05:24:15;;;;;;;;;;;;;;;18.59;68.79;99769.97;2083397;28;23197;-71
2022/12/18 05:25:17;;;;;;;;;;;;;;;18.63;68.88;99771.28;2084283;28;19924;-71
2022/12/18 05:26:18;;;;;;;;;;;;;;;18.65;68.70;99773.81;2082795;28;20083;-70
2022/12/18 05:27:20;;;;;;;;;;;;;;;18.67;68.45;99769.13;2083234;28;20027;-69